createdAt,value
2019-04-27T00:00:43.395Z,1007.78
2019-04-27T00:01:45.300Z,1007.69
2019-04-27T00:02:43.597Z,1007.65
2019-04-27T00:03:44.845Z,1007.62
2019-04-27T00:04:43.314Z,1007.58
2019-04-27T00:05:43.494Z,1007.51
2019-04-27T00:06:46.423Z,1007.50
2019-04-27T00:07:43.970Z,1007.49
2019-04-27T00:08:43.294Z,1007.45
2019-04-27T00:09:50.128Z,1007.49
2019-04-27T00:10:43.709Z,1007.45
2019-04-27T00:11:45.452Z,1007.45
2019-04-27T00:12:43.290Z,1007.40
2019-04-27T00:13:44.001Z,1007.42
2019-04-27T00:14:43.910Z,1007.45
2019-04-27T00:15:43.938Z,1007.40
2019-04-27T00:16:46.883Z,1007.41
2019-04-27T00:17:48.590Z,1007.48
2019-04-27T00:18:45.503Z,1007.45
2019-04-27T00:19:43.840Z,1007.43
2019-04-27T00:20:43.477Z,1007.43
2019-04-27T00:21:43.235Z,1007.45
2019-04-27T00:22:43.605Z,1007.39
2019-04-27T00:23:43.222Z,1007.32
2019-04-27T00:24:44.202Z,1007.31
2019-04-27T00:25:43.783Z,1007.40
2019-04-27T00:26:43.319Z,1007.38
2019-04-27T00:27:43.614Z,1007.34
2019-04-27T00:28:43.448Z,1007.29
2019-04-27T00:29:43.299Z,1007.28
2019-04-27T00:30:43.876Z,1007.21
2019-04-27T00:31:43.547Z,1007.21
2019-04-27T00:32:43.398Z,1007.25
2019-04-27T00:33:43.540Z,1007.33
2019-04-27T00:34:43.249Z,1007.40
2019-04-27T00:35:43.773Z,1007.37
2019-04-27T00:36:43.560Z,1007.37
2019-04-27T00:37:44.924Z,1007.40
2019-04-27T00:38:43.605Z,1007.26
2019-04-27T00:39:43.357Z,1007.21
2019-04-27T00:40:43.657Z,1007.16
2019-04-27T00:41:43.135Z,1007.16
2019-04-27T00:42:44.102Z,1007.11
2019-04-27T00:43:44.463Z,1007.11
2019-04-27T00:44:43.117Z,1007.18
2019-04-27T00:45:43.700Z,1007.15
2019-04-27T00:46:43.195Z,1007.15
2019-04-27T00:47:54.714Z,1007.17
2019-04-27T00:48:43.351Z,1007.21
2019-04-27T00:49:44.332Z,1007.21
2019-04-27T00:50:43.905Z,1007.26
2019-04-27T00:51:43.463Z,1007.25
2019-04-27T00:52:43.078Z,1007.21
2019-04-27T00:53:43.505Z,1007.21
2019-04-27T00:54:44.148Z,1007.20
2019-04-27T00:55:43.501Z,1007.18
2019-04-27T00:56:43.058Z,1007.25
2019-04-27T00:57:43.504Z,1007.27
2019-04-27T00:58:45.316Z,1007.25
2019-04-27T00:59:43.188Z,1007.24
2019-04-27T01:00:43.985Z,1007.21
2019-04-27T01:01:43.572Z,1007.21
2019-04-27T01:02:43.516Z,1007.19
2019-04-27T01:03:43.144Z,1007.18
2019-04-27T01:04:43.020Z,1007.18
2019-04-27T01:05:43.150Z,1007.21
2019-04-27T01:06:43.773Z,1007.21
2019-04-27T01:07:43.426Z,1007.19
2019-04-27T01:08:44.923Z,1007.29
2019-04-27T01:09:42.988Z,1007.22
2019-04-27T01:10:43.573Z,1007.27
2019-04-27T01:11:43.426Z,1007.31
2019-04-27T01:12:43.108Z,1007.34
2019-04-27T01:13:43.482Z,1007.36
2019-04-27T01:14:45.085Z,1007.34
2019-04-27T01:15:43.120Z,1007.33
2019-04-27T01:16:42.955Z,1007.35
2019-04-27T01:17:42.948Z,1007.33
2019-04-27T01:18:42.940Z,1007.29
2019-04-27T01:19:42.935Z,1007.34
2019-04-27T01:20:42.926Z,1007.35
2019-04-27T01:21:42.931Z,1007.41
2019-04-27T01:22:42.920Z,1007.44
2019-04-27T01:23:42.914Z,1007.50
2019-04-27T01:24:42.912Z,1007.52
2019-04-27T01:25:42.904Z,1007.51
2019-04-27T01:26:42.897Z,1007.53
2019-04-27T01:27:42.895Z,1007.57
2019-04-27T01:28:42.889Z,1007.64
2019-04-27T01:29:42.883Z,1007.65
2019-04-27T01:30:42.876Z,1007.66
2019-04-27T01:31:42.887Z,1007.68
2019-04-27T01:32:42.867Z,1007.68
2019-04-27T01:33:42.862Z,1007.63
2019-04-27T01:34:42.856Z,1007.64
2019-04-27T01:35:42.850Z,1007.59
2019-04-27T01:36:42.847Z,1007.60
2019-04-27T01:37:42.843Z,1007.61
2019-04-27T01:38:42.863Z,1007.56
2019-04-27T01:39:42.831Z,1007.63
2019-04-27T01:40:42.827Z,1007.64
2019-04-27T01:41:42.820Z,1007.64
2019-04-27T01:42:42.814Z,1007.64
2019-04-27T01:43:42.810Z,1007.64
2019-04-27T01:44:42.806Z,1007.66
2019-04-27T01:45:42.802Z,1007.65
2019-04-27T01:46:42.798Z,1007.67
2019-04-27T01:47:42.793Z,1007.69
2019-04-27T01:48:42.787Z,1007.72
2019-04-27T01:49:42.785Z,1007.73
2019-04-27T01:50:42.777Z,1007.73
2019-04-27T01:51:42.770Z,1007.79
2019-04-27T01:52:42.766Z,1007.83
2019-04-27T01:53:42.762Z,1007.84
2019-04-27T01:54:42.755Z,1007.82
2019-04-27T01:55:42.750Z,1007.87
2019-04-27T01:56:42.747Z,1007.86
2019-04-27T01:57:42.743Z,1007.89
2019-04-27T01:58:42.738Z,1007.84
2019-04-27T01:59:42.737Z,1007.84
2019-04-27T02:00:42.728Z,1007.77
2019-04-27T02:01:42.723Z,1007.78
2019-04-27T02:02:42.715Z,1007.77
2019-04-27T02:03:42.709Z,1007.78
2019-04-27T02:04:42.711Z,1007.76
2019-04-27T02:05:42.702Z,1007.72
2019-04-27T02:06:42.696Z,1007.78
2019-04-27T02:07:42.690Z,1007.81
2019-04-27T02:08:42.686Z,1007.83
2019-04-27T02:09:42.683Z,1007.85
2019-04-27T02:10:42.678Z,1007.86
2019-04-27T02:11:42.669Z,1007.89
2019-04-27T02:12:44.028Z,1007.92
2019-04-27T02:13:42.662Z,1007.98
2019-04-27T02:14:42.656Z,1007.99
2019-04-27T02:15:42.656Z,1008.00
2019-04-27T02:16:42.646Z,1008.03
2019-04-27T02:17:42.644Z,1008.02
2019-04-27T02:18:42.639Z,1008.06
2019-04-27T02:19:42.635Z,1008.10
2019-04-27T02:20:44.402Z,1008.14
2019-04-27T02:21:42.623Z,1008.05
2019-04-27T02:22:42.617Z,1008.11
2019-04-27T02:23:42.618Z,1008.14
2019-04-27T02:24:42.609Z,1008.12
2019-04-27T02:25:42.603Z,1008.10
2019-04-27T02:26:42.599Z,1008.11
2019-04-27T02:27:42.593Z,1008.04
2019-04-27T02:28:42.596Z,1008.02
2019-04-27T02:29:42.591Z,1008.02
2019-04-27T02:30:42.581Z,1007.98
2019-04-27T02:31:42.582Z,1007.97
2019-04-27T02:32:42.601Z,1007.90
2019-04-27T02:33:42.574Z,1008.01
2019-04-27T02:34:42.565Z,1007.96
2019-04-27T02:35:42.561Z,1007.92
2019-04-27T02:36:42.578Z,1007.91
2019-04-27T02:37:42.549Z,1007.84
2019-04-27T02:38:42.550Z,1007.88
2019-04-27T02:39:42.533Z,1007.89
2019-04-27T02:40:42.725Z,1007.87
2019-04-27T02:41:42.532Z,1007.87
2019-04-27T02:42:42.521Z,1007.83
2019-04-27T02:43:42.517Z,1007.82
2019-04-27T02:44:42.512Z,1007.75
2019-04-27T02:45:42.515Z,1007.80
2019-04-27T02:46:42.510Z,1007.75
2019-04-27T02:47:42.495Z,1007.69
2019-04-27T02:48:55.467Z,1007.74
2019-04-27T02:49:42.485Z,1007.68
2019-04-27T02:50:42.478Z,1007.65
2019-04-27T02:51:42.957Z,1007.67
2019-04-27T02:52:42.470Z,1007.65
2019-04-27T02:53:42.466Z,1007.68
2019-04-27T02:54:42.469Z,1007.65
2019-04-27T02:55:42.456Z,1007.69
2019-04-27T02:56:42.453Z,1007.71
2019-04-27T02:57:42.450Z,1007.72
2019-04-27T02:58:42.439Z,1007.74
2019-04-27T02:59:42.432Z,1007.77
2019-04-27T03:00:42.431Z,1007.76
2019-04-27T03:01:46.553Z,1007.70
2019-04-27T03:02:42.416Z,1007.83
2019-04-27T03:03:42.411Z,1007.81
2019-04-27T03:04:42.407Z,1007.78
2019-04-27T03:05:42.402Z,1007.80
2019-04-27T03:06:42.396Z,1007.81
2019-04-27T03:07:42.837Z,1007.85
2019-04-27T03:08:42.832Z,1007.84
2019-04-27T03:09:42.384Z,1007.91
2019-04-27T03:10:42.376Z,1007.88
2019-04-27T03:11:42.371Z,1007.91
2019-04-27T03:12:42.557Z,1007.93
2019-04-27T03:13:42.371Z,1007.94
2019-04-27T03:14:42.354Z,1007.97
2019-04-27T03:15:42.351Z,1008.04
2019-04-27T03:16:42.344Z,1008.10
2019-04-27T03:17:42.338Z,1008.09
2019-04-27T03:18:42.332Z,1008.11
2019-04-27T03:19:42.324Z,1008.15
2019-04-27T03:20:42.323Z,1008.15
2019-04-27T03:21:42.318Z,1008.15
2019-04-27T03:22:42.314Z,1008.15
2019-04-27T03:23:42.310Z,1008.12
2019-04-27T03:24:42.301Z,1008.16
2019-04-27T03:25:42.295Z,1008.14
2019-04-27T03:26:42.293Z,1008.22
2019-04-27T03:27:42.293Z,1008.22
2019-04-27T03:28:42.282Z,1008.23
2019-04-27T03:29:42.271Z,1008.23
2019-04-27T03:30:43.360Z,1008.21
2019-04-27T03:31:47.317Z,1008.22
2019-04-27T03:32:43.368Z,1008.26
2019-04-27T03:33:43.316Z,1008.29
2019-04-27T03:34:42.307Z,1008.27
2019-04-27T03:35:43.717Z,1008.28
2019-04-27T03:36:42.239Z,1008.30
2019-04-27T03:37:42.239Z,1008.27
2019-04-27T03:38:42.223Z,1008.28
2019-04-27T03:39:42.220Z,1008.26
2019-04-27T03:40:42.215Z,1008.23
2019-04-27T03:41:42.212Z,1008.24
2019-04-27T03:42:42.206Z,1008.20
2019-04-27T03:43:42.200Z,1008.19
2019-04-27T03:44:42.196Z,1008.23
2019-04-27T03:45:42.190Z,1008.20
2019-04-27T03:46:42.186Z,1008.19
2019-04-27T03:47:42.176Z,1008.22
2019-04-27T03:48:42.174Z,1008.17
2019-04-27T03:49:42.175Z,1008.21
2019-04-27T03:50:42.964Z,1008.21
2019-04-27T03:51:42.159Z,1008.25
2019-04-27T03:52:42.154Z,1008.24
2019-04-27T03:53:42.156Z,1008.27
2019-04-27T03:54:42.143Z,1008.26
2019-04-27T03:55:42.710Z,1008.23
2019-04-27T03:56:42.131Z,1008.23
2019-04-27T03:57:42.130Z,1008.20
2019-04-27T03:58:42.123Z,1008.13
2019-04-27T03:59:42.117Z,1008.15
2019-04-27T04:00:42.121Z,1008.21
2019-04-27T04:01:42.106Z,1008.21
2019-04-27T04:02:42.118Z,1008.27
2019-04-27T04:03:42.096Z,1008.30
2019-04-27T04:04:42.089Z,1008.30
2019-04-27T04:05:42.095Z,1008.34
2019-04-27T04:06:42.088Z,1008.33
2019-04-27T04:07:42.077Z,1008.34
2019-04-27T04:08:42.069Z,1008.32
2019-04-27T04:09:42.069Z,1008.33
2019-04-27T04:10:42.062Z,1008.32
2019-04-27T04:11:42.058Z,1008.32
2019-04-27T04:12:42.049Z,1008.35
2019-04-27T04:13:42.052Z,1008.34
2019-04-27T04:14:42.927Z,1008.34
2019-04-27T04:15:42.034Z,1008.32
2019-04-27T04:16:42.030Z,1008.27
2019-04-27T04:17:42.027Z,1008.30
2019-04-27T04:18:42.018Z,1008.26
2019-04-27T04:19:53.960Z,1008.24
2019-04-27T04:20:42.009Z,1008.23
2019-04-27T04:21:42.005Z,1008.28
2019-04-27T04:22:41.998Z,1008.24
2019-04-27T04:23:41.993Z,1008.24
2019-04-27T04:24:41.987Z,1008.22
2019-04-27T04:25:41.983Z,1008.20
2019-04-27T04:26:41.978Z,1008.27
2019-04-27T04:27:42.761Z,1008.27
2019-04-27T04:28:41.967Z,1008.27
2019-04-27T04:29:41.965Z,1008.27
2019-04-27T04:30:41.957Z,1008.31
2019-04-27T04:31:41.954Z,1008.28
2019-04-27T04:32:41.950Z,1008.33
2019-04-27T04:33:41.941Z,1008.32
2019-04-27T04:34:41.940Z,1008.31
2019-04-27T04:35:41.939Z,1008.32
2019-04-27T04:36:42.540Z,1008.30
2019-04-27T04:37:41.924Z,1008.25
2019-04-27T04:38:41.913Z,1008.20
2019-04-27T04:39:41.909Z,1008.22
2019-04-27T04:40:41.916Z,1008.21
2019-04-27T04:41:43.587Z,1008.25
2019-04-27T04:42:41.896Z,1008.23
2019-04-27T04:43:41.895Z,1008.27
2019-04-27T04:44:41.886Z,1008.26
2019-04-27T04:45:41.880Z,1008.25
2019-04-27T04:46:41.874Z,1008.31
2019-04-27T04:47:41.866Z,1008.23
2019-04-27T04:48:41.864Z,1008.24
2019-04-27T04:49:41.855Z,1008.19
2019-04-27T04:50:41.851Z,1008.13
2019-04-27T04:51:41.850Z,1008.15
2019-04-27T04:52:42.422Z,1008.20
2019-04-27T04:53:41.837Z,1008.17
2019-04-27T04:54:41.837Z,1008.21
2019-04-27T04:55:41.826Z,1008.26
2019-04-27T04:56:41.826Z,1008.34
2019-04-27T04:57:41.817Z,1008.38
2019-04-27T04:58:41.817Z,1008.36
2019-04-27T04:59:43.761Z,1008.39
2019-04-27T05:00:41.803Z,1008.34
2019-04-27T05:01:41.797Z,1008.29
2019-04-27T05:02:41.791Z,1008.23
2019-04-27T05:03:41.788Z,1008.22
2019-04-27T05:04:41.781Z,1008.19
2019-04-27T05:05:41.782Z,1008.17
2019-04-27T05:06:41.770Z,1008.21
2019-04-27T05:07:41.767Z,1008.21
2019-04-27T05:08:41.762Z,1008.24
2019-04-27T05:09:41.765Z,1008.28
2019-04-27T05:10:41.751Z,1008.33
2019-04-27T05:11:41.749Z,1008.36
2019-04-27T05:12:41.741Z,1008.35
2019-04-27T05:13:41.735Z,1008.37
2019-04-27T05:14:41.740Z,1008.42
2019-04-27T05:15:41.725Z,1008.40
2019-04-27T05:16:41.723Z,1008.42
2019-04-27T05:17:41.719Z,1008.39
2019-04-27T05:18:41.715Z,1008.38
2019-04-27T05:19:41.711Z,1008.34
2019-04-27T05:20:41.707Z,1008.34
2019-04-27T05:21:41.704Z,1008.35
2019-04-27T05:22:41.692Z,1008.37
2019-04-27T05:23:41.687Z,1008.39
2019-04-27T05:24:41.685Z,1008.40
2019-04-27T05:25:41.679Z,1008.39
2019-04-27T05:26:41.677Z,1008.41
2019-04-27T05:27:41.676Z,1008.39
2019-04-27T05:28:41.668Z,1008.35
2019-04-27T05:29:41.663Z,1008.39
2019-04-27T05:30:41.659Z,1008.37
2019-04-27T05:31:41.653Z,1008.35
2019-04-27T05:32:41.648Z,1008.37
2019-04-27T05:33:41.644Z,1008.37
2019-04-27T05:34:41.637Z,1008.37
2019-04-27T05:35:41.632Z,1008.34
2019-04-27T05:36:48.347Z,1008.40
2019-04-27T05:37:44.336Z,1008.36
2019-04-27T05:38:46.033Z,1008.38
2019-04-27T05:39:41.613Z,1008.46
2019-04-27T05:40:41.612Z,1008.44
2019-04-27T05:41:41.843Z,1008.46
2019-04-27T05:42:41.603Z,1008.47
2019-04-27T05:43:41.596Z,1008.50
2019-04-27T05:44:45.721Z,1008.46
2019-04-27T05:45:41.590Z,1008.52
2019-04-27T05:46:41.580Z,1008.48
2019-04-27T05:47:43.284Z,1008.48
2019-04-27T05:48:41.573Z,1008.47
2019-04-27T05:49:44.418Z,1008.45
2019-04-27T05:50:45.635Z,1008.46
2019-04-27T05:51:42.076Z,1008.47
2019-04-27T05:52:41.558Z,1008.46
2019-04-27T05:53:41.553Z,1008.48
2019-04-27T05:54:41.547Z,1008.48
2019-04-27T05:55:41.542Z,1008.47
2019-04-27T05:56:41.538Z,1008.44
2019-04-27T05:57:41.534Z,1008.44
2019-04-27T05:58:41.528Z,1008.43
2019-04-27T05:59:41.521Z,1008.42
2019-04-27T06:00:41.522Z,1008.41
2019-04-27T06:01:41.517Z,1008.41
2019-04-27T06:02:41.516Z,1008.38
2019-04-27T06:03:41.499Z,1008.40
2019-04-27T06:04:41.502Z,1008.41
2019-04-27T06:05:41.497Z,1008.42
2019-04-27T06:06:41.500Z,1008.42
2019-04-27T06:07:41.487Z,1008.47
2019-04-27T06:08:41.486Z,1008.45
2019-04-27T06:09:41.489Z,1008.46
2019-04-27T06:10:41.475Z,1008.47
2019-04-27T06:11:41.479Z,1008.46
2019-04-27T06:12:41.466Z,1008.47
2019-04-27T06:13:41.469Z,1008.48
2019-04-27T06:14:41.461Z,1008.48
2019-04-27T06:15:41.456Z,1008.46
2019-04-27T06:16:41.457Z,1008.48
2019-04-27T06:17:41.447Z,1008.49
2019-04-27T06:18:41.445Z,1008.52
2019-04-27T06:19:43.794Z,1008.50
2019-04-27T06:20:51.296Z,1008.53
2019-04-27T06:21:41.431Z,1008.53
2019-04-27T06:22:41.427Z,1008.55
2019-04-27T06:23:41.422Z,1008.50
2019-04-27T06:24:41.418Z,1008.50
2019-04-27T06:25:41.417Z,1008.50
2019-04-27T06:26:41.413Z,1008.51
2019-04-27T06:27:41.407Z,1008.48
2019-04-27T06:28:41.402Z,1008.47
2019-04-27T06:29:41.399Z,1008.41
2019-04-27T06:30:41.394Z,1008.50
2019-04-27T06:31:41.392Z,1008.46
2019-04-27T06:32:41.387Z,1008.50
2019-04-27T06:33:41.384Z,1008.46
2019-04-27T06:34:41.382Z,1008.48
2019-04-27T06:35:41.375Z,1008.46
2019-04-27T06:36:41.378Z,1008.46
2019-04-27T06:37:41.370Z,1008.43
2019-04-27T06:38:41.364Z,1008.49
2019-04-27T06:39:41.362Z,1008.45
2019-04-27T06:40:41.358Z,1008.46
2019-04-27T06:41:41.354Z,1008.52
2019-04-27T06:42:41.348Z,1008.47
2019-04-27T06:43:41.346Z,1008.47
2019-04-27T06:44:41.342Z,1008.45
2019-04-27T06:45:41.339Z,1008.45
2019-04-27T06:46:41.338Z,1008.46
2019-04-27T06:47:41.524Z,1008.45
2019-04-27T06:48:41.327Z,1008.46
2019-04-27T06:49:41.331Z,1008.53
2019-04-27T06:50:41.326Z,1008.53
2019-04-27T06:51:41.320Z,1008.57
2019-04-27T06:52:41.316Z,1008.54
2019-04-27T06:53:41.312Z,1008.59
2019-04-27T06:54:41.307Z,1008.61
2019-04-27T06:55:41.308Z,1008.66
2019-04-27T06:56:41.305Z,1008.62
2019-04-27T06:57:41.366Z,1008.69
2019-04-27T06:58:41.296Z,1008.69
2019-04-27T06:59:41.295Z,1008.71
2019-04-27T07:00:41.292Z,1008.68
2019-04-27T07:01:41.288Z,1008.69
2019-04-27T07:02:41.283Z,1008.68
2019-04-27T07:03:41.287Z,1008.70
2019-04-27T07:04:41.277Z,1008.72
2019-04-27T07:05:41.275Z,1008.75
2019-04-27T07:06:52.555Z,1008.71
2019-04-27T07:07:41.266Z,1008.72
2019-04-27T07:08:41.264Z,1008.75
2019-04-27T07:09:41.262Z,1008.77
2019-04-27T07:10:41.261Z,1008.71
2019-04-27T07:11:41.251Z,1008.74
2019-04-27T07:12:41.308Z,1008.74
2019-04-27T07:13:41.250Z,1008.72
2019-04-27T07:14:52.361Z,1008.68
2019-04-27T07:15:41.244Z,1008.72
2019-04-27T07:16:41.246Z,1008.70
2019-04-27T07:17:41.242Z,1008.75
2019-04-27T07:18:41.236Z,1008.78
2019-04-27T07:19:41.235Z,1008.79
2019-04-27T07:20:41.235Z,1008.79
2019-04-27T07:21:41.227Z,1008.80
2019-04-27T07:22:41.228Z,1008.80
2019-04-27T07:23:41.225Z,1008.80
2019-04-27T07:24:41.222Z,1008.77
2019-04-27T07:25:41.218Z,1008.78
2019-04-27T07:26:41.214Z,1008.75
2019-04-27T07:27:41.214Z,1008.70
2019-04-27T07:28:41.211Z,1008.69
2019-04-27T07:29:44.719Z,1008.68
2019-04-27T07:30:41.201Z,1008.60
2019-04-27T07:31:41.203Z,1008.62
2019-04-27T07:32:41.209Z,1008.64
2019-04-27T07:33:41.198Z,1008.60
2019-04-27T07:34:41.195Z,1008.67
2019-04-27T07:35:41.191Z,1008.63
2019-04-27T07:36:41.194Z,1008.67
2019-04-27T07:37:41.190Z,1008.62
2019-04-27T07:38:41.184Z,1008.55
2019-04-27T07:39:41.182Z,1008.58
2019-04-27T07:40:42.043Z,1008.58
2019-04-27T07:41:41.180Z,1008.61
2019-04-27T07:42:41.430Z,1008.59
2019-04-27T07:43:41.175Z,1008.63
2019-04-27T07:44:41.171Z,1008.65
2019-04-27T07:45:41.171Z,1008.66
2019-04-27T07:46:41.168Z,1008.68
2019-04-27T07:47:41.171Z,1008.70
2019-04-27T07:48:41.164Z,1008.70
2019-04-27T07:49:41.163Z,1008.71
2019-04-27T07:50:41.162Z,1008.73
2019-04-27T07:51:41.159Z,1008.72
2019-04-27T07:52:41.173Z,1008.72
2019-04-27T07:53:41.156Z,1008.70
2019-04-27T07:54:41.167Z,1008.69
2019-04-27T07:55:41.149Z,1008.75
2019-04-27T07:56:41.151Z,1008.73
2019-04-27T07:57:41.161Z,1008.76
2019-04-27T07:58:41.151Z,1008.75
2019-04-27T07:59:42.071Z,1008.78
2019-04-27T08:00:41.146Z,1008.80
2019-04-27T08:01:41.142Z,1008.74
2019-04-27T08:02:41.144Z,1008.73
2019-04-27T08:03:41.143Z,1008.72
2019-04-27T08:04:41.145Z,1008.67
2019-04-27T08:05:41.141Z,1008.68
2019-04-27T08:06:41.135Z,1008.67
2019-04-27T08:07:41.139Z,1008.65
2019-04-27T08:08:41.134Z,1008.64
2019-04-27T08:09:41.132Z,1008.64
2019-04-27T08:10:41.135Z,1008.65
2019-04-27T08:11:41.164Z,1008.63
2019-04-27T08:12:41.132Z,1008.64
2019-04-27T08:13:41.128Z,1008.69
2019-04-27T08:14:41.126Z,1008.68
2019-04-27T08:15:41.130Z,1008.63
2019-04-27T08:16:41.122Z,1008.71
2019-04-27T08:17:42.907Z,1008.69
2019-04-27T08:18:41.122Z,1008.69
2019-04-27T08:19:41.120Z,1008.71
2019-04-27T08:20:41.117Z,1008.68
2019-04-27T08:21:44.358Z,1008.67
2019-04-27T08:22:41.118Z,1008.69
2019-04-27T08:23:41.121Z,1008.68
2019-04-27T08:24:41.117Z,1008.66
2019-04-27T08:25:41.107Z,1008.69
2019-04-27T08:26:41.109Z,1008.63
2019-04-27T08:27:41.112Z,1008.68
2019-04-27T08:28:41.108Z,1008.71
2019-04-27T08:29:41.103Z,1008.69
2019-04-27T08:30:41.106Z,1008.64
2019-04-27T08:31:41.106Z,1008.67
2019-04-27T08:32:41.506Z,1008.66
2019-04-27T08:33:41.103Z,1008.60
2019-04-27T08:34:41.105Z,1008.60
2019-04-27T08:35:41.122Z,1008.61
2019-04-27T08:36:41.103Z,1008.61
2019-04-27T08:37:41.099Z,1008.57
2019-04-27T08:38:41.093Z,1008.56
2019-04-27T08:39:41.100Z,1008.52
2019-04-27T08:40:41.091Z,1008.52
2019-04-27T08:41:41.088Z,1008.54
2019-04-27T08:42:41.086Z,1008.58
2019-04-27T08:43:41.087Z,1008.54
2019-04-27T08:44:41.088Z,1008.56
2019-04-27T08:45:41.087Z,1008.56
2019-04-27T08:46:41.079Z,1008.50
2019-04-27T08:47:41.792Z,1008.58
2019-04-27T08:48:41.080Z,1008.54
2019-04-27T08:49:41.077Z,1008.52
2019-04-27T08:50:42.151Z,1008.54
2019-04-27T08:51:41.527Z,1008.53
2019-04-27T08:52:41.878Z,1008.58
2019-04-27T08:53:41.073Z,1008.58
2019-04-27T08:54:41.069Z,1008.59
2019-04-27T08:55:41.072Z,1008.56
2019-04-27T08:56:41.066Z,1008.58
2019-04-27T08:57:41.068Z,1008.54
2019-04-27T08:58:41.072Z,1008.56
2019-04-27T08:59:41.065Z,1008.58
2019-04-27T09:00:41.065Z,1008.53
2019-04-27T09:01:41.067Z,1008.48
2019-04-27T09:02:46.865Z,1008.56
2019-04-27T09:03:41.062Z,1008.54
2019-04-27T09:04:41.065Z,1008.57
2019-04-27T09:05:41.066Z,1008.59
2019-04-27T09:06:41.060Z,1008.54
2019-04-27T09:07:41.060Z,1008.54
2019-04-27T09:08:41.410Z,1008.55
2019-04-27T09:09:41.057Z,1008.48
2019-04-27T09:10:41.055Z,1008.52
2019-04-27T09:11:41.055Z,1008.53
2019-04-27T09:12:41.564Z,1008.49
2019-04-27T09:13:41.263Z,1008.47
2019-04-27T09:14:41.052Z,1008.48
2019-04-27T09:15:41.055Z,1008.44
2019-04-27T09:16:41.052Z,1008.43
2019-04-27T09:17:41.052Z,1008.41
2019-04-27T09:18:41.180Z,1008.42
2019-04-27T09:19:41.051Z,1008.46
2019-04-27T09:20:41.050Z,1008.46
2019-04-27T09:21:41.050Z,1008.43
2019-04-27T09:22:41.050Z,1008.45
2019-04-27T09:23:41.047Z,1008.45
2019-04-27T09:24:41.047Z,1008.46
2019-04-27T09:25:41.047Z,1008.50
2019-04-27T09:26:41.049Z,1008.51
2019-04-27T09:27:41.047Z,1008.50
2019-04-27T09:28:41.049Z,1008.49
2019-04-27T09:29:41.055Z,1008.52
2019-04-27T09:30:41.046Z,1008.45
2019-04-27T09:31:41.042Z,1008.45
2019-04-27T09:32:41.038Z,1008.47
2019-04-27T09:33:41.044Z,1008.46
2019-04-27T09:34:41.042Z,1008.51
2019-04-27T09:35:41.046Z,1008.51
2019-04-27T09:36:41.041Z,1008.46
2019-04-27T09:37:41.040Z,1008.45
2019-04-27T09:38:41.041Z,1008.48
2019-04-27T09:39:41.041Z,1008.52
2019-04-27T09:40:41.039Z,1008.52
2019-04-27T09:41:41.040Z,1008.50
2019-04-27T09:42:41.041Z,1008.54
2019-04-27T09:43:41.040Z,1008.51
2019-04-27T09:44:41.039Z,1008.48
2019-04-27T09:45:41.038Z,1008.49
2019-04-27T09:46:41.043Z,1008.49
2019-04-27T09:47:41.041Z,1008.49
2019-04-27T09:48:41.035Z,1008.51
2019-04-27T09:49:41.036Z,1008.54
2019-04-27T09:50:41.037Z,1008.54
2019-04-27T09:51:41.036Z,1008.50
2019-04-27T09:52:41.037Z,1008.54
2019-04-27T09:53:41.033Z,1008.50
2019-04-27T09:54:41.031Z,1008.52
2019-04-27T09:55:41.031Z,1008.53
2019-04-27T09:56:41.032Z,1008.54
2019-04-27T09:57:41.036Z,1008.54
2019-04-27T09:58:41.031Z,1008.53
2019-04-27T09:59:41.031Z,1008.55
2019-04-27T10:00:41.031Z,1008.55
2019-04-27T10:01:41.034Z,1008.53
2019-04-27T10:02:41.030Z,1008.50
2019-04-27T10:03:41.029Z,1008.50
2019-04-27T10:04:41.023Z,1008.50
2019-04-27T10:05:41.035Z,1008.58
2019-04-27T10:06:41.026Z,1008.58
2019-04-27T10:07:41.072Z,1008.47
2019-04-27T10:08:41.028Z,1008.53
2019-04-27T10:09:41.025Z,1008.55
2019-04-27T10:10:41.026Z,1008.51
2019-04-27T10:11:41.025Z,1008.52
2019-04-27T10:12:41.030Z,1008.48
2019-04-27T10:13:41.028Z,1008.41
2019-04-27T10:14:41.037Z,1008.43
2019-04-27T10:15:41.055Z,1008.42
2019-04-27T10:16:41.025Z,1008.39
2019-04-27T10:17:41.031Z,1008.39
2019-04-27T10:18:41.025Z,1008.45
2019-04-27T10:19:41.025Z,1008.33
2019-04-27T10:20:41.194Z,1008.38
2019-04-27T10:21:41.028Z,1008.43
2019-04-27T10:22:43.463Z,1008.44
2019-04-27T10:23:41.024Z,1008.40
2019-04-27T10:24:41.028Z,1008.42
2019-04-27T10:25:41.027Z,1008.37
2019-04-27T10:26:43.729Z,1008.40
2019-04-27T10:27:41.027Z,1008.31
2019-04-27T10:28:41.024Z,1008.30
2019-04-27T10:29:41.026Z,1008.34
2019-04-27T10:30:41.029Z,1008.31
2019-04-27T10:31:41.028Z,1008.32
2019-04-27T10:32:42.835Z,1008.32
2019-04-27T10:33:41.025Z,1008.35
2019-04-27T10:34:41.027Z,1008.32
2019-04-27T10:35:41.026Z,1008.30
2019-04-27T10:36:41.031Z,1008.33
2019-04-27T10:37:41.027Z,1008.33
2019-04-27T10:38:41.027Z,1008.27
2019-04-27T10:39:41.028Z,1008.26
2019-04-27T10:40:41.029Z,1008.27
2019-04-27T10:41:41.029Z,1008.25
2019-04-27T10:42:41.030Z,1008.26
2019-04-27T10:43:41.028Z,1008.24
2019-04-27T10:44:41.026Z,1008.20
2019-04-27T10:45:41.031Z,1008.21
2019-04-27T10:46:41.029Z,1008.25
2019-04-27T10:47:41.031Z,1008.25
2019-04-27T10:48:41.032Z,1008.24
2019-04-27T10:49:41.031Z,1008.28
2019-04-27T10:50:41.031Z,1008.26
2019-04-27T10:51:41.032Z,1008.29
2019-04-27T10:52:52.845Z,1008.28
2019-04-27T10:53:41.036Z,1008.31
2019-04-27T10:54:41.036Z,1008.25
2019-04-27T10:55:41.037Z,1008.30
2019-04-27T10:56:41.037Z,1008.27
2019-04-27T10:57:41.037Z,1008.28
2019-04-27T10:58:41.053Z,1008.31
2019-04-27T10:59:41.079Z,1008.23
2019-04-27T11:00:41.037Z,1008.27
2019-04-27T11:01:41.041Z,1008.26
2019-04-27T11:02:41.038Z,1008.23
2019-04-27T11:03:41.042Z,1008.27
2019-04-27T11:04:41.041Z,1008.24
2019-04-27T11:05:41.050Z,1008.27
2019-04-27T11:06:41.042Z,1008.26
2019-04-27T11:07:41.045Z,1008.23
2019-04-27T11:08:41.045Z,1008.25
2019-04-27T11:09:41.049Z,1008.18
2019-04-27T11:10:41.044Z,1008.25
2019-04-27T11:11:41.050Z,1008.27
2019-04-27T11:12:41.049Z,1008.27
2019-04-27T11:13:41.049Z,1008.21
2019-04-27T11:14:41.053Z,1008.21
2019-04-27T11:15:41.052Z,1008.21
2019-04-27T11:16:41.055Z,1008.22
2019-04-27T11:17:41.053Z,1008.22
2019-04-27T11:18:41.059Z,1008.24
2019-04-27T11:19:41.053Z,1008.19
2019-04-27T11:20:41.055Z,1008.14
2019-04-27T11:21:41.061Z,1008.05
2019-04-27T11:22:41.056Z,1008.10
2019-04-27T11:23:41.064Z,1008.12
2019-04-27T11:24:41.060Z,1008.12
2019-04-27T11:25:41.058Z,1008.11
2019-04-27T11:26:41.059Z,1008.11
2019-04-27T11:27:41.061Z,1008.09
2019-04-27T11:28:42.710Z,1008.10
2019-04-27T11:29:41.063Z,1008.14
2019-04-27T11:30:41.065Z,1008.12
2019-04-27T11:31:41.065Z,1008.11
2019-04-27T11:32:41.075Z,1008.12
2019-04-27T11:33:41.069Z,1008.04
2019-04-27T11:34:41.071Z,1008.05
2019-04-27T11:35:41.068Z,1008.01
2019-04-27T11:36:41.070Z,1008.03
2019-04-27T11:37:41.072Z,1008.00
2019-04-27T11:38:41.070Z,1007.99
2019-04-27T11:39:41.075Z,1008.00
2019-04-27T11:40:41.072Z,1007.98
2019-04-27T11:41:41.075Z,1007.97
2019-04-27T11:42:41.074Z,1007.93
2019-04-27T11:43:41.077Z,1007.89
2019-04-27T11:44:41.080Z,1007.92
2019-04-27T11:45:41.080Z,1007.94
2019-04-27T11:46:41.080Z,1007.90
2019-04-27T11:47:41.081Z,1007.94
2019-04-27T11:48:41.082Z,1007.89
2019-04-27T11:49:41.083Z,1007.93
2019-04-27T11:50:41.085Z,1007.90
2019-04-27T11:51:41.084Z,1007.93
2019-04-27T11:52:41.085Z,1007.90
2019-04-27T11:53:41.084Z,1007.90
2019-04-27T11:54:41.108Z,1007.88
2019-04-27T11:55:41.085Z,1007.92
2019-04-27T11:56:41.089Z,1007.93
2019-04-27T11:57:41.093Z,1007.93
2019-04-27T11:58:41.090Z,1007.88
2019-04-27T11:59:41.090Z,1007.90
2019-04-27T12:00:41.094Z,1007.91
2019-04-27T12:01:41.096Z,1007.88
2019-04-27T12:02:41.089Z,1007.87
2019-04-27T12:03:41.095Z,1007.85
2019-04-27T12:04:41.097Z,1007.83
2019-04-27T12:05:41.119Z,1007.81